Jonesville, NC (28642)

2:00 AM EDT on September 04, 2015 (GMT -0400)
West Main Street | | Change Station
CLOSE
Current Station
Personal Weather Station
Location: Elkin, NC
Elevation: 938 ft
Nearby Weather Stations

Elev 938 ft 36.24 °N, 80.86 °W | Updated 5 minutes ago

Partly Cloudy
Partly Cloudy
70.2 °F
Feels Like 70.2 °F
N
0.0
Wind Variable Wind from SW

Today
High -- | Low -- °F
--% Chance of Precip.
Yesterday
High -- | Low -- °F
Precip. -- in
6:56 AM 7:46 PM
Waning Gibbous, 63% visible
Pressure 30.04 in
Visibility 4.0 miles
Clouds Clear
Dew Point 68 °F
Humidity 92%
Rainfall 0.00 in
Snow Depth Not available.
UV 0 out of 12
Pollen 9.00 out of 12
Air Quality Not available.
Flu Activity Not available.
METAR KUKF 040535Z AUTO 00000KT 4SM BR CLR 20/20 A3004 RMK AO2 LTG DSNT N
Pressure 30.04 in
Visibility 4.0 miles
Clouds Clear
Dew Point 68 °F
Humidity 92%
Rainfall 0.00 in
Snow Depth Not available.
UV 0 out of 12
Pollen 9.00 out of 12
Air Quality Not available.
Flu Activity Not available.
METAR KUKF 040535Z AUTO 00000KT 4SM BR CLR 20/20 A3004 RMK AO2 LTG DSNT N

10-Day Weather Forecast

×

Almanac

Astronomy

Sep. 04, 2015 Rise Set
Actual Time
Civil Twilight
Nautical Twilight
Astronomical Twilight
Moon
Length of Visible Light
Length of Day
Tomorrow will be .
, % of the Moon is Illuminated

Today's Extremes

State Highs State Lows

Community

WunderPhotos

Upload Photos

1,852,132 photos uploaded!

WunderBlogs® & News

Nearby

Air Quality

  Air Quality AQ Index Pollutant
Not available.

Snow Depth

Station Depth Elevation

Earthquake Activity

City Distance Mag. Time & Date
Minimum magnitude displayed is 2.5.

Coastal Water Temperatures

Place Temperature

Stations

Nearby Weather Stations

Station Location Temp. Windchill Dew Point Humidity Wind Precip. Elev Updated Type